Time;durP1;ratioP1;P1;durP2;ratioP2;P2;SDS_P1;SDS_P2;PMS_P1;PMS_P2;Temp;Humidity;BMP_temperature;BMP_pressure;BME280_temperature;BME280_humidity;BME280_pressure;Samples;Min_cycle;Max_cycle;Signal;HPM_P1;HPM_P2
2021/08/30 00:00:33;;;;;;;20.35;8.80;;;;;;;18.37;100.00;99456.97;1748775;81;22166;-82
2021/08/30 00:03:00;;;;;;;11.30;8.85;;;;;;;18.37;100.00;99480.96;1748523;82;21025;-82
2021/08/30 00:05:29;;;;;;;14.78;8.73;;;;;;;18.37;100.00;99468.96;1748560;81;20973;-83
2021/08/30 00:07:56;;;;;;;16.05;9.73;;;;;;;18.33;100.00;99431.03;1748473;82;21049;-80
2021/08/30 00:10:22;;;;;;;16.95;9.68;;;;;;;18.30;100.00;99401.97;1747857;82;21050;-83
2021/08/30 00:12:51;;;;;;;14.33;9.35;;;;;;;18.23;100.00;99400.28;1747929;82;21085;-82
2021/08/30 00:15:20;;;;;;;13.08;9.75;;;;;;;18.18;100.00;99389.64;1748015;82;21038;-82
2021/08/30 00:17:49;;;;;;;17.73;10.10;;;;;;;18.14;100.00;99389.03;1748131;82;21563;-83
2021/08/30 00:20:20;;;;;;;14.00;9.53;;;;;;;18.10;100.00;99389.39;1748079;82;21042;-83
2021/08/30 00:22:48;;;;;;;16.55;9.00;;;;;;;18.08;100.00;99391.33;1748202;82;21441;-83
2021/08/30 00:25:14;;;;;;;18.40;9.78;;;;;;;18.08;100.00;99403.32;1748109;82;21121;-81
2021/08/30 00:27:42;;;;;;;13.08;9.08;;;;;;;18.08;100.00;99397.50;1747968;82;20991;-84
2021/08/30 00:30:11;;;;;;;17.87;9.88;;;;;;;18.08;100.00;99392.17;1747672;82;21065;-82
2021/08/30 00:32:39;;;;;;;14.70;9.23;;;;;;;18.08;100.00;99404.16;1748311;82;21076;-83
2021/08/30 00:35:06;;;;;;;17.20;9.93;;;;;;;18.09;100.00;99385.89;1748667;82;21697;-82
2021/08/30 00:37:34;;;;;;;18.02;10.28;;;;;;;18.08;100.00;99380.19;1748038;82;21849;-83
2021/08/30 00:40:04;;;;;;;14.40;9.15;;;;;;;18.06;100.00;99394.14;1748200;82;21044;-83
2021/08/30 00:42:33;;;;;;;18.40;10.40;;;;;;;18.04;100.00;99406.73;1741660;82;21082;-83
2021/08/30 00:45:08;;;;;;;13.32;8.88;;;;;;;18.04;100.00;99389.41;1735040;82;20971;-82
2021/08/30 00:47:37;;;;;;;22.37;9.58;;;;;;;18.02;100.00;99414.00;1734158;82;21047;-82
2021/08/30 00:50:06;;;;;;;15.30;9.68;;;;;;;18.01;100.00;99390.97;1734803;82;21144;-84
2021/08/30 00:52:32;;;;;;;15.15;9.33;;;;;;;17.99;100.00;99366.27;1734655;82;21085;-85
2021/08/30 00:54:59;;;;;;;15.25;9.18;;;;;;;17.97;100.00;99386.88;1721648;82;21077;-83
2021/08/30 00:57:25;;;;;;;15.35;9.50;;;;;;;17.98;100.00;99385.89;1704719;84;21071;-83
2021/08/30 00:59:51;;;;;;;14.65;10.08;;;;;;;17.96;100.00;99382.50;1704661;84;21552;-82
2021/08/30 01:02:18;;;;;;;20.20;9.88;;;;;;;17.95;100.00;99386.16;1704522;84;21058;-83
2021/08/30 01:04:44;;;;;;;18.17;10.05;;;;;;;17.94;100.00;99379.95;1704821;84;21061;-81
2021/08/30 01:07:32;;;;;;;16.40;9.78;;;;;;;17.95;100.00;99383.48;1708085;83;21612;-83
2021/08/30 01:10:09;;;;;;;14.55;10.03;;;;;;;17.98;100.00;99372.58;1704532;84;21265;-82
2021/08/30 01:12:44;;;;;;;16.73;9.63;;;;;;;18.01;100.00;99381.64;1705055;84;21045;-83
2021/08/30 01:15:23;;;;;;;13.38;9.55;;;;;;;18.08;100.00;99379.34;1705063;84;21108;-83
2021/08/30 01:17:50;;;;;;;15.53;9.15;;;;;;;18.11;100.00;99364.47;1705131;84;21092;-83
2021/08/30 01:20:46;;;;;;;14.73;9.55;;;;;;;18.16;100.00;99373.77;1705014;84;21054;-82
2021/08/30 01:23:13;;;;;;;15.50;9.45;;;;;;;18.19;100.00;99378.00;1704715;83;21082;-83
2021/08/30 01:25:39;;;;;;;17.70;10.40;;;;;;;18.23;100.00;99369.63;1704924;84;21057;-82
2021/08/30 01:28:07;;;;;;;16.97;10.25;;;;;;;18.28;100.00;99367.92;1705097;84;21158;-82
2021/08/30 01:30:33;;;;;;;16.40;9.63;;;;;;;18.30;100.00;99369.14;1704993;83;21065;-83
2021/08/30 01:33:02;;;;;;;14.23;10.25;;;;;;;18.30;100.00;99367.31;1705155;84;22039;-83
2021/08/30 01:35:30;;;;;;;14.55;9.75;;;;;;;18.30;100.00;99371.81;1705264;84;21540;-82
2021/08/30 01:38:00;;;;;;;16.73;9.88;;;;;;;18.28;100.00;99375.08;1705072;84;21194;-82
2021/08/30 01:40:29;;;;;;;16.80;10.55;;;;;;;18.23;100.00;99369.63;1705284;84;21287;-82
2021/08/30 01:42:57;;;;;;;15.53;9.93;;;;;;;18.22;100.00;99362.63;1705345;83;21533;-83
2021/08/30 01:45:26;;;;;;;17.73;9.78;;;;;;;18.21;100.00;99363.58;1708569;83;21069;-82
2021/08/30 01:47:55;;;;;;;14.13;8.95;;;;;;;18.19;100.00;99370.84;1704918;84;21101;-82
2021/08/30 01:50:22;;;;;;;14.15;9.58;;;;;;;18.16;100.00;99360.45;1705181;84;21034;-82
2021/08/30 01:52:53;;;;;;;16.85;9.78;;;;;;;18.14;100.00;99366.38;1704731;84;21816;-82
2021/08/30 02:00:43;;;;;;;16.20;9.15;;;;;;;17.98;100.00;99357.44;1734441;82;21702;-83
2021/08/30 02:03:22;;;;;;;14.35;9.60;;;;;;;18.00;100.00;99369.31;1734391;82;21074;-82
2021/08/30 02:05:52;;;;;;;11.73;7.10;;;;;;;17.96;100.00;99371.36;1734390;82;21157;-84
2021/08/30 02:08:22;;;;;;;17.87;9.43;;;;;;;17.95;100.00;99388.81;1734202;82;21061;-83
2021/08/30 02:10:47;;;;;;;14.35;9.05;;;;;;;17.94;100.00;99387.10;1734106;81;21101;-84
2021/08/30 02:13:14;;;;;;;16.07;9.78;;;;;;;17.95;100.00;99372.83;1734250;82;21014;-82
2021/08/30 02:15:44;;;;;;;18.85;9.38;;;;;;;17.96;100.00;99386.50;1734052;82;21066;-84
2021/08/30 02:18:25;;;;;;;15.38;9.58;;;;;;;17.97;100.00;99390.87;1734447;82;21764;-82
2021/08/30 02:21:23;;;;;;;19.02;10.60;;;;;;;17.99;100.00;99396.91;1734375;82;21070;-83
2021/08/30 02:23:59;;;;;;;17.07;9.53;;;;;;;17.97;100.00;99396.20;1734058;82;21219;-82
2021/08/30 02:26:31;;;;;;;15.78;10.50;;;;;;;17.96;100.00;99396.66;1733482;82;21069;-83
2021/08/30 02:29:03;;;;;;;15.55;9.70;;;;;;;17.97;100.00;99398.87;1733326;82;21082;-83
2021/08/30 02:31:30;;;;;;;14.90;8.95;;;;;;;17.96;100.00;99401.99;1734719;82;21133;-82
2021/08/30 02:34:00;;;;;;;15.90;9.68;;;;;;;17.98;100.00;99403.21;1713472;82;22020;-80
2021/08/30 02:36:27;;;;;;;16.70;10.00;;;;;;;17.94;100.00;99400.42;1734437;82;21045;-83
2021/08/30 02:38:54;;;;;;;15.95;10.25;;;;;;;18.00;100.00;99421.26;1734167;82;21094;-81
2021/08/30 02:41:20;;;;;;;21.05;10.18;;;;;;;18.01;100.00;99421.61;1734488;82;21058;-81
2021/08/30 02:43:47;;;;;;;16.20;10.35;;;;;;;18.01;100.00;99429.14;1712883;82;21132;-84
2021/08/30 02:46:13;;;;;;;13.65;9.40;;;;;;;18.02;100.00;99428.65;1734121;82;21612;-81
2021/08/30 02:48:39;;;;;;;16.82;10.03;;;;;;;18.01;100.00;99427.81;1734444;82;21070;-83
2021/08/30 02:51:06;;;;;;;17.45;9.95;;;;;;;18.03;100.00;99422.34;1713526;82;21097;-81
2021/08/30 02:53:34;;;;;;;20.48;10.10;;;;;;;18.00;100.00;99417.27;1734423;82;21026;-83
2021/08/30 02:56:00;;;;;;;14.95;9.38;;;;;;;17.97;100.00;99417.52;1714109;82;21101;-83
2021/08/30 02:58:27;;;;;;;14.87;9.78;;;;;;;18.00;100.00;99421.26;1734694;82;21513;-83
2021/08/30 03:00:54;;;;;;;14.90;9.28;;;;;;;18.00;100.00;99420.77;1724227;82;21066;-83
2021/08/30 03:03:20;;;;;;;17.00;9.50;;;;;;;18.00;100.00;99411.94;1705114;84;21061;-82
2021/08/30 03:05:47;;;;;;;18.70;9.78;;;;;;;18.00;100.00;99415.93;1705207;84;21545;-82
2021/08/30 03:08:15;;;;;;;15.08;9.40;;;;;;;17.99;100.00;99416.42;1705769;84;21543;-83
2021/08/30 03:10:43;;;;;;;20.08;10.32;;;;;;;17.99;100.00;99417.75;1707772;84;21007;-81
2021/08/30 03:13:09;;;;;;;15.85;9.43;;;;;;;18.00;100.00;99416.77;1708222;84;21106;-81
2021/08/30 03:15:36;;;;;;;17.05;9.53;;;;;;;18.00;100.00;99410.60;1708104;84;21113;-82
2021/08/30 03:18:06;;;;;;;17.80;9.95;;;;;;;17.98;100.00;99408.54;1708186;84;21113;-82
2021/08/30 03:20:33;;;;;;;14.20;10.00;;;;;;;17.97;100.00;99410.86;1707157;84;21437;-83
2021/08/30 03:23:01;;;;;;;18.02;9.90;;;;;;;17.97;100.00;99408.19;1705052;84;21536;-83
2021/08/30 03:25:31;;;;;;;18.80;9.98;;;;;;;17.97;100.00;99402.86;1705597;84;21011;-84
2021/08/30 03:27:57;;;;;;;20.80;10.08;;;;;;;17.98;100.00;99404.05;1705510;84;21101;-82
2021/08/30 03:30:25;;;;;;;13.90;9.40;;;;;;;17.99;100.00;99407.56;1685012;84;21022;-84
2021/08/30 03:32:51;;;;;;;12.93;9.38;;;;;;;18.00;100.00;99402.61;1704880;84;21505;-83
2021/08/30 03:35:18;;;;;;;13.32;8.35;;;;;;;18.01;100.00;99405.63;1705027;84;21061;-84
2021/08/30 03:37:45;;;;;;;19.00;10.28;;;;;;;18.01;100.00;99404.30;1704868;84;21065;-84
2021/08/30 03:40:12;;;;;;;17.55;9.25;;;;;;;18.01;100.00;99410.49;1684925;84;21648;-84
2021/08/30 03:42:39;;;;;;;21.15;9.83;;;;;;;18.01;100.00;99404.30;1704944;83;21001;-83
2021/08/30 03:45:07;;;;;;;19.27;9.83;;;;;;;18.04;100.00;99406.73;1705293;84;21786;-83
2021/08/30 03:47:34;;;;;;;18.80;9.63;;;;;;;18.04;100.00;99408.06;1704929;84;21045;-83
2021/08/30 03:50:01;;;;;;;16.70;9.93;;;;;;;18.06;100.00;99402.13;1684930;84;21105;-81
2021/08/30 03:52:27;;;;;;;17.45;9.80;;;;;;;18.09;100.00;99396.55;1684629;84;21097;-84
2021/08/30 03:54:54;;;;;;;15.98;9.83;;;;;;;18.11;100.00;99397.28;1705231;84;21097;-83
2021/08/30 03:57:22;;;;;;;18.25;10.20;;;;;;;18.15;100.00;99400.53;1704750;83;21518;-84
2021/08/30 03:59:53;;;;;;;17.32;9.48;;;;;;;18.18;100.00;99403.80;1708340;83;21139;-83
2021/08/30 04:02:20;;;;;;;17.35;9.88;;;;;;;18.21;100.00;99398.22;1705963;84;21105;-83
2021/08/30 04:04:46;;;;;;;17.60;10.28;;;;;;;18.24;100.00;99402.45;1704868;84;21058;-83
2021/08/30 04:07:13;;;;;;;14.18;9.70;;;;;;;18.27;100.00;99394.23;1704644;84;21030;-83
2021/08/30 04:09:39;;;;;;;21.02;9.80;;;;;;;18.35;100.00;99396.27;1705091;83;21771;-80
2021/08/30 04:12:07;;;;;;;17.98;9.65;;;;;;;18.45;100.00;99394.56;1704695;84;21042;-83
2021/08/30 04:14:35;;;;;;;13.48;9.13;;;;;;;18.65;100.00;99391.08;1704796;84;21074;-81
2021/08/30 04:17:02;;;;;;;13.28;9.15;;;;;;;18.83;100.00;99401.25;1704839;84;21026;-81
2021/08/30 04:19:30;;;;;;;19.15;9.15;;;;;;;18.92;100.00;99403.16;1704589;84;21535;-82
2021/08/30 04:21:59;;;;;;;17.25;9.13;;;;;;;18.94;100.00;99407.88;1704554;84;21029;-83
2021/08/30 04:24:25;;;;;;;13.78;8.63;;;;;;;18.92;100.00;99405.83;1704673;84;21089;-82
2021/08/30 04:26:52;;;;;;;14.68;9.33;;;;;;;18.88;99.82;99406.20;1704701;84;21158;-83
2021/08/30 04:29:18;;;;;;;20.72;9.10;;;;;;;18.85;100.00;99413.48;1704723;84;21215;-82
2021/08/30 04:31:44;;;;;;;15.53;9.48;;;;;;;18.83;99.85;99407.42;1704934;84;21042;-83
2021/08/30 04:34:11;;;;;;;20.57;10.30;;;;;;;18.83;99.89;99409.25;1705046;84;21449;-84
2021/08/30 04:36:38;;;;;;;17.35;9.78;;;;;;;18.82;99.68;99408.91;1704497;84;21049;-83
2021/08/30 04:39:04;;;;;;;17.20;9.75;;;;;;;18.80;99.29;99402.36;1705016;84;21612;-80
2021/08/30 04:41:31;;;;;;;17.45;9.73;;;;;;;18.82;99.53;99398.23;1704728;84;21568;-82
2021/08/30 04:43:59;;;;;;;21.42;8.90;;;;;;;18.93;99.14;99392.83;1711983;83;21112;-80
2021/08/30 04:46:27;;;;;;;17.07;9.05;;;;;;;19.05;98.56;99402.98;1719161;83;21109;-81
2021/08/30 04:48:54;;;;;;;19.15;8.93;;;;;;;19.13;97.34;99396.50;1718477;83;21092;-82
2021/08/30 04:51:40;;;;;;;17.07;8.73;;;;;;;19.16;96.87;99386.05;1721181;76;21034;-81
2021/08/30 04:54:09;;;;;;;12.70;8.65;;;;;;;19.25;96.71;99391.95;1688028;84;21103;-77
2021/08/30 04:56:35;;;;;;;15.78;8.85;;;;;;;19.34;96.38;99393.83;1669414;85;21053;-76
2021/08/30 04:59:02;;;;;;;16.17;8.58;;;;;;;19.51;95.20;99407.09;1669509;84;22104;-78
2021/08/30 05:01:30;;;;;;;18.23;8.93;;;;;;;19.71;94.03;99421.42;1669362;84;21102;-76
2021/08/30 05:03:58;;;;;;;15.58;8.73;;;;;;;20.01;92.34;99423.74;1669431;86;21054;-76
2021/08/30 05:06:25;;;;;;;14.10;8.43;;;;;;;20.35;89.72;99424.78;1669373;86;21021;-77
2021/08/30 05:08:52;;;;;;;14.98;8.65;;;;;;;20.68;88.17;99427.62;1669398;85;21122;-77
2021/08/30 05:11:18;;;;;;;17.27;7.90;;;;;;;20.93;87.39;99427.58;1669533;85;21486;-76
2021/08/30 05:13:45;;;;;;;12.60;7.72;;;;;;;21.05;86.27;99414.42;1669381;86;21091;-76
2021/08/30 05:16:14;;;;;;;18.67;8.85;;;;;;;21.04;85.41;99411.38;1669463;86;21051;-77
2021/08/30 05:18:47;;;;;;;17.25;8.45;;;;;;;20.91;85.55;99384.05;1646321;86;21137;-76
2021/08/30 05:21:13;;;;;;;15.53;8.78;;;;;;;20.78;86.69;99371.47;1669079;85;21034;-76
2021/08/30 05:23:40;;;;;;;19.42;8.43;;;;;;;20.59;87.29;99370.47;1669448;84;21150;-80
2021/08/30 05:26:07;;;;;;;14.13;8.75;;;;;;;20.42;87.95;99375.95;1669606;85;21020;-76
2021/08/30 05:28:33;;;;;;;13.80;8.98;;;;;;;20.26;88.51;99367.13;1670067;84;21656;-76
2021/08/30 05:31:00;;;;;;;14.60;8.85;;;;;;;20.30;88.04;99378.41;1670241;86;21055;-77
2021/08/30 05:33:26;;;;;;;17.87;9.00;;;;;;;20.33;88.12;99401.69;1670179;85;21083;-76
2021/08/30 05:35:53;;;;;;;17.95;8.50;;;;;;;20.27;88.00;99396.06;1669422;84;21063;-77
2021/08/30 05:38:19;;;;;;;13.83;8.83;;;;;;;20.24;88.19;99403.84;1670010;86;21669;-77
2021/08/30 05:40:46;;;;;;;16.02;9.28;;;;;;;20.22;88.72;99399.16;1669574;85;21036;-76
2021/08/30 05:43:12;;;;;;;15.23;9.78;;;;;;;20.30;88.73;99406.48;1669610;84;21031;-78
2021/08/30 05:45:39;;;;;;;16.60;9.53;;;;;;;20.42;88.63;99404.53;1669739;84;21012;-78
2021/08/30 05:48:06;;;;;;;15.55;10.05;;;;;;;20.69;87.61;99418.62;1669614;86;21252;-78
2021/08/30 05:50:34;;;;;;;16.05;9.78;;;;;;;20.97;86.81;99416.11;1670071;86;21091;-77
2021/08/30 05:53:01;;;;;;;19.73;9.78;;;;;;;21.14;85.42;99408.22;1676483;83;21529;-76
2021/08/30 05:55:31;;;;;;;18.30;9.55;;;;;;;21.41;83.44;99397.28;1681858;85;21086;-77
2021/08/30 05:57:57;;;;;;;14.03;9.35;;;;;;;21.48;82.23;99387.67;1681537;84;21092;-77
2021/08/30 06:00:24;;;;;;;15.13;9.45;;;;;;;21.70;82.40;99392.36;1679978;85;21986;-77
2021/08/30 06:02:50;;;;;;;18.62;9.23;;;;;;;21.88;80.63;99389.26;1680263;85;21324;-78
2021/08/30 06:05:18;;;;;;;13.65;8.85;;;;;;;21.91;79.75;99394.31;1680211;84;21105;-77
2021/08/30 06:07:45;;;;;;;17.42;9.05;;;;;;;22.03;79.89;99391.45;1680237;85;21102;-77
2021/08/30 06:10:14;;;;;;;18.67;9.23;;;;;;;22.21;78.82;99384.33;1680045;84;21086;-76
2021/08/30 06:12:41;;;;;;;13.38;8.75;;;;;;;22.49;77.76;99381.62;1680184;85;22154;-76
2021/08/30 06:15:09;;;;;;;16.52;8.93;;;;;;;22.67;76.88;99374.42;1680358;85;21083;-78
2021/08/30 06:17:35;;;;;;;17.87;8.98;;;;;;;22.76;77.03;99370.83;1680450;85;21015;-78
2021/08/30 06:20:02;;;;;;;18.50;9.40;;;;;;;22.96;76.84;99376.02;1680589;85;21612;-78
2021/08/30 06:22:29;;;;;;;19.50;9.20;;;;;;;23.17;75.53;99390.02;1680166;84;21082;-77
2021/08/30 06:24:55;;;;;;;15.18;9.20;;;;;;;23.50;73.03;99388.90;1681040;84;21803;-77
2021/08/30 06:27:21;;;;;;;15.13;9.63;;;;;;;23.63;71.76;99385.29;1680956;85;21042;-77
2021/08/30 06:29:48;;;;;;;16.50;9.23;;;;;;;23.59;71.38;99374.52;1680655;85;21070;-78
2021/08/30 06:32:15;;;;;;;15.45;9.90;;;;;;;23.66;71.61;99368.84;1680810;85;21090;-77
2021/08/30 06:34:44;;;;;;;18.87;9.65;;;;;;;23.84;70.62;99363.93;1680104;85;21118;-78
2021/08/30 06:37:10;;;;;;;15.68;9.35;;;;;;;24.02;68.78;99359.31;1682501;85;21147;-78
2021/08/30 06:39:42;;;;;;;14.53;9.38;;;;;;;24.36;68.75;99354.35;1683625;81;20987;-78
2021/08/30 06:42:13;;;;;;;21.05;9.68;;;;;;;24.81;67.30;99358.50;1684497;82;21272;-77
2021/08/30 06:44:41;;;;;;;17.60;9.53;;;;;;;25.30;64.88;99355.81;1682147;82;20996;-78
2021/08/30 06:47:08;;;;;;;13.80;8.93;;;;;;;25.67;64.07;99343.61;1679606;85;21582;-77
2021/08/30 06:49:35;;;;;;;12.70;8.80;;;;;;;25.90;62.16;99343.73;1680594;85;21166;-77
2021/08/30 06:52:02;;;;;;;13.90;9.23;;;;;;;26.00;60.82;99332.75;1679848;84;21004;-79
2021/08/30 06:54:28;;;;;;;16.45;8.55;;;;;;;26.13;59.95;99339.74;1641075;85;21414;-78
2021/08/30 06:56:54;;;;;;;19.20;9.70;;;;;;;26.41;59.88;99343.33;1665750;86;21069;-77
2021/08/30 06:59:22;;;;;;;13.75;9.28;;;;;;;26.60;58.90;99354.72;1665569;84;21108;-78
2021/08/30 07:01:48;;;;;;;21.15;9.35;;;;;;;26.79;57.48;99348.83;1665584;86;21076;-76
2021/08/30 07:04:15;;;;;;;15.72;8.88;;;;;;;26.95;57.17;99350.56;1665585;84;21029;-77
2021/08/30 07:06:43;;;;;;;25.43;9.25;;;;;;;27.18;57.26;99355.94;1665261;84;21728;-73
2021/08/30 07:09:10;;;;;;;17.75;9.00;;;;;;;27.53;56.47;99357.64;1665831;84;21674;-77
2021/08/30 07:11:37;;;;;;;12.93;8.98;;;;;;;27.90;53.86;99354.56;1665182;86;21093;-78
2021/08/30 07:14:04;;;;;;;18.37;8.35;;;;;;;28.12;52.04;99348.19;1642482;86;21149;-77
2021/08/30 07:16:30;;;;;;;17.80;9.18;;;;;;;28.07;50.92;99351.98;1665518;84;21025;-79
2021/08/30 07:18:57;;;;;;;24.00;9.78;;;;;;;27.78;51.63;99352.29;1665975;84;21113;-77
2021/08/30 07:21:24;;;;;;;15.72;9.08;;;;;;;27.51;52.09;99354.28;1665816;86;21121;-78
2021/08/30 07:23:52;;;;;;;24.85;11.18;;;;;;;27.28;52.25;99360.59;1665706;84;21072;-78
2021/08/30 07:26:18;;;;;;;26.73;10.72;;;;;;;26.97;53.53;99352.05;1665661;84;21140;-79
2021/08/30 07:28:45;;;;;;;22.27;9.90;;;;;;;26.88;53.62;99345.04;1665664;86;21045;-76
2021/08/30 07:31:12;;;;;;;22.70;10.03;;;;;;;26.91;52.37;99344.66;1665670;86;21096;-77
2021/08/30 07:33:38;;;;;;;19.07;9.58;;;;;;;26.99;52.73;99348.66;1665710;85;21108;-76
2021/08/30 07:36:04;;;;;;;22.93;9.48;;;;;;;27.14;52.96;99352.74;1665787;85;21064;-77
2021/08/30 07:38:31;;;;;;;30.10;11.38;;;;;;;27.37;52.28;99354.08;1666068;86;22155;-77
2021/08/30 07:40:57;;;;;;;34.25;11.45;;;;;;;27.72;51.47;99350.84;1665819;85;21068;-78
2021/08/30 07:43:26;;;;;;;24.90;10.90;;;;;;;28.01;51.21;99340.55;1665776;85;21072;-75
2021/08/30 07:45:52;;;;;;;24.92;11.35;;;;;;;28.14;50.76;99332.61;1665735;86;21061;-77
2021/08/30 07:48:22;;;;;;;26.93;9.73;;;;;;;28.29;49.95;99334.43;1665825;85;21614;-78
2021/08/30 07:50:49;;;;;;;24.18;10.80;;;;;;;28.57;49.40;99333.20;1665912;86;22154;-78
2021/08/30 07:53:16;;;;;;;23.65;10.30;;;;;;;28.88;49.02;99333.41;1666200;84;21039;-79
2021/08/30 07:55:43;;;;;;;18.75;9.93;;;;;;;29.23;47.84;99332.98;1664834;86;21018;-76
2021/08/30 07:58:10;;;;;;;27.65;10.93;;;;;;;29.57;47.70;99330.00;1664167;86;22158;-78
2021/08/30 08:00:36;;;;;;;71.20;13.05;;;;;;;29.67;45.85;99339.95;1664021;86;21129;-78
2021/08/30 08:03:02;;;;;;;32.08;11.93;;;;;;;29.52;46.14;99338.73;1664660;86;21508;-77
2021/08/30 08:05:29;;;;;;;25.68;10.82;;;;;;;29.23;46.30;99341.12;1664360;86;21021;-81
2021/08/30 08:07:56;;;;;;;33.48;10.20;;;;;;;28.87;46.50;99340.67;1664528;86;21109;-77
2021/08/30 08:10:23;;;;;;;19.42;9.65;;;;;;;28.50;47.76;99337.19;1664835;86;21512;-78
2021/08/30 08:12:51;;;;;;;30.70;11.60;;;;;;;28.61;47.27;99328.55;1665330;85;21196;-77
2021/08/30 08:15:19;;;;;;;27.90;10.72;;;;;;;28.64;47.54;99336.31;1664425;85;21010;-76
2021/08/30 08:17:46;;;;;;;21.23;10.98;;;;;;;28.51;47.48;99333.47;1664458;85;21651;-78
2021/08/30 08:20:14;;;;;;;19.40;10.43;;;;;;;28.43;46.75;99318.13;1664283;85;21118;-78
2021/08/30 08:22:44;;;;;;;19.17;10.82;;;;;;;28.32;47.21;99332.69;1664064;85;21749;-78
2021/08/30 08:25:11;;;;;;;;;;;;;;;28.11;48.01;99330.25;1666889;85;21100;-77
2021/08/30 08:27:38;;;;;;;25.48;11.03;;;;;;;27.98;48.67;99309.30;1664259;86;21561;-79
2021/08/30 08:30:07;;;;;;;30.95;11.78;;;;;;;28.03;48.76;99315.50;1664214;86;22016;-76
2021/08/30 08:32:34;;;;;;;33.92;12.73;;;;;;;28.16;48.49;99321.08;1664310;86;22165;-79
2021/08/30 08:35:00;;;;;;;24.10;11.50;;;;;;;28.39;47.95;99325.47;1664399;85;21078;-78
2021/08/30 08:37:26;;;;;;;31.33;11.55;;;;;;;28.28;48.79;99320.58;1664253;86;21560;-78
2021/08/30 08:39:55;;;;;;;24.02;12.03;;;;;;;28.38;48.77;99315.69;1664345;85;21034;-78
2021/08/30 08:42:21;;;;;;;19.67;10.35;;;;;;;28.26;47.97;99302.34;1663775;86;21088;-78
2021/08/30 08:44:47;;;;;;;17.90;9.95;;;;;;;28.02;47.66;99281.33;1664775;85;21141;-79
2021/08/30 08:47:17;;;;;;;22.45;11.80;;;;;;;27.98;48.22;99283.59;1665201;86;21113;-78
2021/08/30 08:49:50;;;;;;;23.73;10.68;;;;;;;28.29;47.17;99297.88;1664944;85;21084;-77
2021/08/30 08:52:13;;;;;;;18.45;10.38;;;;;;;28.44;46.80;99306.80;1664500;84;21527;-77
2021/08/30 08:54:39;;;;;;;24.23;11.10;;;;;;;28.45;46.49;99307.11;1674828;85;21021;-78
2021/08/30 08:57:06;;;;;;;20.32;10.43;;;;;;;28.49;46.29;99297.61;1677884;85;21107;-78
2021/08/30 08:59:32;;;;;;;19.73;10.55;;;;;;;28.59;47.12;99296.76;1678013;85;21088;-77
2021/08/30 09:01:59;;;;;;;18.82;10.00;;;;;;;28.42;46.29;99286.67;1677947;85;21092;-78
2021/08/30 09:04:35;;;;;;;21.23;9.68;;;;;;;28.38;46.87;99279.13;1677928;85;20997;-77
2021/08/30 09:07:12;;;;;;;23.50;10.45;;;;;;;28.41;46.33;99267.91;1678091;85;21044;-79
2021/08/30 09:09:41;;;;;;;29.63;10.82;;;;;;;28.45;46.39;99275.97;1678256;85;21060;-78
2021/08/30 09:12:20;;;;;;;25.00;10.50;;;;;;;28.34;47.25;99291.37;1677967;85;21092;-77
2021/08/30 09:14:47;;;;;;;19.85;10.45;;;;;;;28.33;46.48;99298.66;1678060;85;21164;-77
2021/08/30 09:17:18;;;;;;;23.33;10.43;;;;;;;28.21;46.45;99296.98;1678160;85;21056;-77
2021/08/30 09:19:45;;;;;;;22.82;10.60;;;;;;;27.94;47.27;99309.87;1677647;85;21100;-77
2021/08/30 09:22:11;;;;;;;20.65;9.93;;;;;;;27.79;48.07;99305.30;1677796;85;21043;-78
2021/08/30 09:24:38;;;;;;;24.55;11.08;;;;;;;27.89;47.59;99304.19;1682963;85;21625;-77
2021/08/30 09:27:11;;;;;;;25.37;10.82;;;;;;;28.17;47.29;99301.09;1677604;85;21108;-78
2021/08/30 09:29:40;;;;;;;19.50;11.33;;;;;;;28.50;46.30;99304.69;1677775;85;21129;-77
2021/08/30 09:32:14;;;;;;;22.27;10.68;;;;;;;28.71;45.80;99294.89;1677738;85;21072;-78
2021/08/30 09:34:50;;;;;;;21.65;10.93;;;;;;;29.00;45.50;99285.23;1677843;85;21041;-77
2021/08/30 09:37:19;;;;;;;18.00;10.30;;;;;;;28.91;45.77;99287.77;1677649;85;21048;-78
2021/08/30 09:39:57;;;;;;;22.00;10.55;;;;;;;28.78;45.92;99283.59;1678314;85;21005;-78
2021/08/30 09:42:23;;;;;;;24.18;11.10;;;;;;;28.48;46.09;99282.38;1677992;85;21530;-77
2021/08/30 09:44:52;;;;;;;21.50;11.03;;;;;;;28.51;46.83;99282.01;1677910;85;21072;-78
2021/08/30 09:47:23;;;;;;;22.48;10.18;;;;;;;28.55;46.40;99291.43;1677921;85;21069;-77
2021/08/30 09:49:53;;;;;;;25.82;10.95;;;;;;;28.32;46.49;99282.59;1678036;85;21104;-77
2021/08/30 09:52:22;;;;;;;20.60;9.78;;;;;;;28.10;47.62;99271.75;1678342;85;21095;-79
2021/08/30 09:54:51;;;;;;;;;;;;;;;27.96;48.26;99282.11;1680392;84;21539;-78
2021/08/30 09:57:17;;;;;;;22.42;10.85;;;;;;;27.88;48.62;99270.03;1678046;85;20196;-79
2021/08/30 09:59:45;;;;;;;21.50;10.05;;;;;;;28.00;49.19;99258.54;1678504;85;21009;-77
2021/08/30 10:02:14;;;;;;;21.80;10.53;;;;;;;28.28;48.31;99243.42;1678212;85;22150;-78
2021/08/30 10:04:41;;;;;;;21.25;10.95;;;;;;;28.45;47.45;99248.37;1678489;85;21120;-77
2021/08/30 10:07:08;;;;;;;24.55;10.63;;;;;;;28.30;48.07;99263.00;1678192;85;21963;-78
2021/08/30 10:09:36;;;;;;;19.57;10.28;;;;;;;28.16;48.54;99262.02;1678215;85;21060;-76
2021/08/30 10:12:04;;;;;;;27.98;10.30;;;;;;;28.05;48.19;99259.31;1678311;85;21025;-75
2021/08/30 10:14:30;;;;;;;25.32;10.53;;;;;;;27.88;48.77;99260.56;1678711;85;21069;-77
2021/08/30 10:16:57;;;;;;;20.80;10.70;;;;;;;27.72;49.62;99262.94;1678663;85;21564;-78
2021/08/30 10:19:29;;;;;;;24.52;11.28;;;;;;;27.52;50.04;99268.10;1678605;85;21293;-77
2021/08/30 10:22:00;;;;;;;19.00;10.60;;;;;;;27.33;50.55;99283.86;1677727;85;21013;-78
2021/08/30 10:24:28;;;;;;;29.65;11.10;;;;;;;27.25;50.97;99282.58;1677964;85;21044;-76
2021/08/30 10:27:08;;;;;;;23.60;12.10;;;;;;;27.15;51.54;99285.52;1679164;85;21480;-77
2021/08/30 10:29:36;;;;;;;31.35;11.88;;;;;;;27.16;52.19;99284.48;1678244;85;21044;-78
2021/08/30 10:32:20;;;;;;;31.48;12.75;;;;;;;27.20;50.48;99276.89;1676691;85;21036;-77
2021/08/30 10:34:46;;;;;;;21.25;11.38;;;;;;;27.15;51.43;99275.23;1677578;85;21691;-76
2021/08/30 10:37:18;;;;;;;26.68;11.93;;;;;;;27.18;50.63;99280.27;1660682;85;21132;-78
2021/08/30 10:39:51;;;;;;;21.17;11.12;;;;;;;27.29;50.60;99282.55;1677830;85;21058;-78
2021/08/30 10:42:19;;;;;;;17.40;9.95;;;;;;;27.48;50.03;99283.84;1678550;85;21068;-77
2021/08/30 10:44:55;;;;;;;17.17;10.78;;;;;;;27.53;49.56;99267.06;1678304;85;21118;-77
2021/08/30 10:47:25;;;;;;;23.15;10.90;;;;;;;27.66;49.58;99271.30;1677073;85;21586;-79
2021/08/30 10:49:53;;;;;;;20.57;11.10;;;;;;;27.89;49.27;99260.91;1659852;85;21128;-76
2021/08/30 10:52:20;;;;;;;21.62;10.93;;;;;;;28.11;48.75;99274.77;1678455;85;21270;-78
2021/08/30 10:54:56;;;;;;;18.30;10.30;;;;;;;28.17;49.00;99269.95;1677727;84;21020;-77
2021/08/30 10:57:37;;;;;;;23.85;11.18;;;;;;;28.11;48.79;99272.06;1678463;85;21759;-79
2021/08/30 11:00:06;;;;;;;21.80;10.45;;;;;;;28.06;49.11;99259.63;1674294;85;21069;-78
2021/08/30 11:02:47;;;;;;;16.17;9.85;;;;;;;28.25;48.85;99259.52;1678490;85;21072;-76
2021/08/30 11:05:16;;;;;;;24.72;10.48;;;;;;;28.48;48.13;99251.75;1678767;85;21144;-78
2021/08/30 11:07:42;;;;;;;17.07;10.03;;;;;;;28.68;47.59;99246.52;1660906;85;21702;-77
2021/08/30 11:10:09;;;;;;;25.82;11.40;;;;;;;28.83;47.54;99269.80;1678350;85;21670;-78
2021/08/30 11:12:42;;;;;;;23.80;10.10;;;;;;;28.89;47.52;99279.00;1678464;85;21081;-77
2021/08/30 11:15:10;;;;;;;27.32;10.55;;;;;;;29.02;47.23;99271.50;1678070;85;21108;-78
2021/08/30 11:17:37;;;;;;;19.17;10.50;;;;;;;29.04;47.75;99262.66;1678210;85;21139;-77
2021/08/30 11:20:06;;;;;;;21.20;10.85;;;;;;;29.17;47.09;99267.34;1677867;85;21091;-78
2021/08/30 11:22:33;;;;;;;23.60;10.40;;;;;;;29.31;45.77;99252.86;1678086;85;21110;-79
2021/08/30 11:25:00;;;;;;;24.52;10.72;;;;;;;29.44;46.06;99256.16;1677622;85;21069;-78
2021/08/30 11:27:35;;;;;;;18.92;10.10;;;;;;;29.44;45.20;99255.63;1678444;85;21072;-78
2021/08/30 11:30:09;;;;;;;25.50;10.75;;;;;;;29.25;45.67;99257.72;1678275;85;21053;-78